Warren, Indiana
Current Conditions -  °F | °C
As of 12:35 AM on Monday 22 Dec 2014 (Local Time) from KHHG Reporting Station
Clear Clear  
Wind Chill: 23°   Ceiling: Unl
Heat Index: 28°   Visibility: 7mi
Dew Point: 25°   Wind: 5mph
Humidity: 90%   Direction: 110°ESE
Pressure: 30.09"   Gusts: NA
Location:  40.68°N, 85.43°W
Report Text: KHHG 220535Z AUTO 11004KT 7SM CLR M02/M04 A3009 RMK AO2 T10221037
Loading
Personal Weather Stations






























Interactive Weather Map New forecast layout! Learn more

10-Day Weather Forecast

Advertisements
Track Severe Weather on mobile